Norfolk, Virginia
Traffic Map
Current Weather Conditions
Norfolk, Virginia
Clear
Clear
20°
Feels Like: 20°
Wind Chill: 20° Ceiling: Unl
Heat Index: 20° Visibility: 10mi
Dew Point: 19° Wind: 0mph
Humidity: 96% Direction: ° ()
Pressure: 29.93in Gusts: 0mph
Raw Report DataKORF 280951Z 00000KT 10SM CLR 20/19 A2993 RMK AO2 SLP133 T02000194
Traffic Incident Summary
Active as of:
Severity:
Category:
InformationThere was an issue retrieving the traffic information for this location. Please try a different location or try again shortly.
Advertisements
Track Severe Weather on mobile